TimeEDT,TemperatureF,Dew PointF,Humidity,Sea Level PressureIn,VisibilityMPH,Wind Direction,Wind SpeedMPH,Gust SpeedMPH,PrecipitationIn,Events,Conditions,WindDirDegrees,DateUTC
12:53 AM,72.0,71.1,97,30.08,3.0,Calm,Calm,-,0.01,,Overcast,0,2012-09-02 04:53:00
1:11 AM,71.6,71.6,100,30.10,2.5,Calm,Calm,-,N/A,,Overcast,0,2012-09-02 05:11:00
1:18 AM,71.6,71.6,100,30.10,5.0,ENE,3.5,-,N/A,,Overcast,60,2012-09-02 05:18:00
1:53 AM,71.1,70.0,96,30.06,10.0,ENE,4.6,-,N/A,,Overcast,70,2012-09-02 05:53:00
2:03 AM,71.6,69.8,94,30.09,10.0,ENE,3.5,-,N/A,,Mostly Cloudy,60,2012-09-02 06:03:00
2:53 AM,71.1,70.0,96,30.06,7.0,Calm,Calm,-,0.01,Rain,Light Rain,0,2012-09-02 06:53:00
3:53 AM,71.1,70.0,96,30.04,8.0,South,3.5,-,0.01,,Partly Cloudy,180,2012-09-02 07:53:00
4:53 AM,71.1,70.0,96,30.04,6.0,Calm,Calm,-,0.00,,Clear,0,2012-09-02 08:53:00
5:16 AM,69.8,69.8,100,30.07,2.5,Calm,Calm,-,N/A,,Partly Cloudy,0,2012-09-02 09:16:00
5:26 AM,71.6,69.8,94,30.08,5.0,Calm,Calm,-,N/A,,Scattered Clouds,0,2012-09-02 09:26:00
5:53 AM,71.1,70.0,96,30.04,5.0,Calm,Calm,-,N/A,,Mostly Cloudy,0,2012-09-02 09:53:00
6:00 AM,71.6,69.8,94,30.07,1.8,East,3.5,-,0.00,Rain,Light Rain,80,2012-09-02 10:00:00
6:14 AM,69.8,69.8,100,30.07,2.0,Calm,Calm,-,0.01,Rain,Light Rain,0,2012-09-02 10:14:00
6:29 AM,69.8,69.8,100,30.08,3.0,Calm,Calm,-,0.03,Rain,Light Rain,0,2012-09-02 10:29:00
6:44 AM,69.8,69.8,100,30.07,1.8,Calm,Calm,-,0.03,,Mostly Cloudy,0,2012-09-02 10:44:00
6:53 AM,70.0,70.0,100,30.05,1.2,Calm,Calm,-,0.03,,Mostly Cloudy,0,2012-09-02 10:53:00
7:02 AM,69.8,69.8,100,30.08,2.5,Calm,Calm,-,N/A,,Mostly Cloudy,0,2012-09-02 11:02:00
7:26 AM,71.6,69.8,94,30.08,3.0,Calm,Calm,-,N/A,,Scattered Clouds,0,2012-09-02 11:26:00
7:36 AM,71.6,69.8,94,30.08,1.8,Calm,Calm,-,N/A,,Scattered Clouds,0,2012-09-02 11:36:00
7:53 AM,71.1,70.0,96,30.06,2.5,Calm,Calm,-,N/A,,Mostly Cloudy,0,2012-09-02 11:53:00
8:17 AM,71.6,69.8,94,30.09,4.0,Calm,Calm,-,N/A,,Mostly Cloudy,0,2012-09-02 12:17:00
8:53 AM,71.1,70.0,96,30.08,3.0,South,3.5,-,0.00,Rain,Light Rain,190,2012-09-02 12:53:00
9:33 AM,71.6,71.6,100,30.10,2.0,Calm,Calm,-,0.03,Rain,Light Rain,0,2012-09-02 13:33:00
9:53 AM,71.1,71.1,100,30.08,3.0,Calm,Calm,-,0.05,Rain,Light Rain,0,2012-09-02 13:53:00
10:01 AM,71.6,71.6,100,30.10,2.0,SSE,3.5,-,0.01,Rain,Light Rain,160,2012-09-02 14:01:00
10:32 AM,71.6,69.8,94,30.09,5.0,Calm,Calm,-,0.05,Rain,Light Rain,0,2012-09-02 14:32:00
10:53 AM,72.0,70.0,93,30.07,4.0,Calm,Calm,-,0.06,Rain,Light Rain,0,2012-09-02 14:53:00
11:09 AM,71.6,71.6,100,30.10,2.5,Calm,Calm,-,0.03,Rain,Rain,0,2012-09-02 15:09:00
11:13 AM,71.6,71.6,100,30.10,3.0,SSW,3.5,-,0.03,Rain,Rain,200,2012-09-02 15:13:00
11:53 AM,71.1,70.0,96,30.06,7.0,South,4.6,-,0.08,Rain,Light Rain,170,2012-09-02 15:53:00
12:53 PM,73.0,69.1,87,30.04,10.0,SSW,3.5,-,0.02,,Overcast,210,2012-09-02 16:53:00
1:53 PM,75.9,70.0,82,30.03,10.0,Calm,Calm,-,N/A,,Partly Cloudy,0,2012-09-02 17:53:00
2:53 PM,78.1,72.0,81,30.00,10.0,NNE,8.1,-,N/A,,Partly Cloudy,30,2012-09-02 18:53:00
3:53 PM,80.1,71.1,74,29.97,10.0,Calm,Calm,-,N/A,,Overcast,0,2012-09-02 19:53:00
4:53 PM,80.1,71.1,74,29.95,10.0,NNE,5.8,-,0.01,,Clear,30,2012-09-02 20:53:00
5:53 PM,78.1,70.0,76,29.96,10.0,North,6.9,-,N/A,,Clear,10,2012-09-02 21:53:00
6:53 PM,77.0,70.0,79,29.95,10.0,NE,4.6,-,N/A,,Clear,40,2012-09-02 22:53:00
7:53 PM,75.0,70.0,84,29.96,10.0,North,3.5,-,N/A,,Clear,350,2012-09-02 23:53:00
8:53 PM,73.9,70.0,87,29.97,10.0,Calm,Calm,-,N/A,,Clear,0,2012-09-03 00:53:00
9:53 PM,73.9,69.1,85,29.97,10.0,Calm,Calm,-,N/A,,Clear,0,2012-09-03 01:53:00
10:53 PM,75.0,69.1,82,29.97,10.0,SSE,5.8,-,N/A,,Clear,150,2012-09-03 02:53:00
11:53 PM,75.0,69.1,82,29.97,10.0,Calm,Calm,-,N/A,,Mostly Cloudy,0,2012-09-03 03:53:00